createdAt,value
2023-04-27T00:00:50.318Z,2975.00
2023-04-27T00:01:50.400Z,2990.00
2023-04-27T00:02:50.457Z,2982.00
2023-04-27T00:03:50.516Z,2993.00
2023-04-27T00:04:50.625Z,3007.00
2023-04-27T00:05:50.755Z,3017.00
2023-04-27T00:06:50.493Z,2970.00
2023-04-27T00:07:50.562Z,2997.00
2023-04-27T00:08:50.609Z,2958.00
2023-04-27T00:09:50.631Z,2979.00
2023-04-27T00:10:50.617Z,2980.00
2023-04-27T00:11:50.639Z,2973.00
2023-04-27T00:12:50.647Z,2981.00
2023-04-27T00:13:50.700Z,3031.00
2023-04-27T00:14:50.790Z,3025.00
2023-04-27T00:15:50.844Z,3043.00
2023-04-27T00:16:50.959Z,2995.00
2023-04-27T00:17:50.969Z,2962.00
2023-04-27T00:18:51.009Z,2955.00
2023-04-27T00:19:51.067Z,2955.00
2023-04-27T00:20:51.114Z,3002.00
2023-04-27T00:21:51.158Z,2962.00
2023-04-27T00:22:51.228Z,2985.00
2023-04-27T00:23:51.273Z,2953.00
2023-04-27T00:24:51.340Z,2928.00
2023-04-27T00:25:51.386Z,2935.00
2023-04-27T00:26:51.460Z,2943.00
2023-04-27T00:27:51.507Z,2941.00
2023-04-27T00:28:51.546Z,2935.00
2023-04-27T00:29:51.605Z,2924.00
2023-04-27T00:30:51.675Z,2936.00
2023-04-27T00:31:51.760Z,2936.00
2023-04-27T00:32:51.832Z,2926.00
2023-04-27T00:33:51.859Z,2969.00
2023-04-27T00:34:51.909Z,2972.00
2023-04-27T00:35:51.936Z,2982.00
2023-04-27T00:36:51.996Z,2954.00
2023-04-27T00:37:52.037Z,2953.00
2023-04-27T00:38:52.096Z,2941.00
2023-04-27T00:39:52.149Z,2953.00
2023-04-27T00:40:52.203Z,2940.00
2023-04-27T00:41:52.233Z,2947.00
2023-04-27T00:42:52.254Z,2993.00
2023-04-27T00:43:52.260Z,2985.00
2023-04-27T00:44:52.282Z,2966.00
2023-04-27T00:45:52.301Z,2996.00
2023-04-27T00:46:52.321Z,2962.00
2023-04-27T00:47:52.350Z,2917.00
2023-04-27T00:48:52.316Z,2935.00
2023-04-27T00:49:52.363Z,2924.00
2023-04-27T00:50:52.350Z,2920.00
2023-04-27T00:51:52.361Z,2927.00
2023-04-27T00:52:52.368Z,2934.00
2023-04-27T00:53:52.362Z,2923.00
2023-04-27T00:54:52.378Z,2905.00
2023-04-27T00:55:52.410Z,2918.00
2023-04-27T00:56:52.412Z,2915.00
2023-04-27T00:57:52.428Z,2916.00
2023-04-27T00:58:52.425Z,2901.00
2023-04-27T00:59:52.460Z,2909.00
2023-04-27T01:00:52.474Z,2906.00
2023-04-27T01:01:52.449Z,2930.00
2023-04-27T01:02:52.629Z,2913.00
2023-04-27T01:03:52.631Z,2933.00
2023-04-27T01:04:52.507Z,2911.00
2023-04-27T01:05:52.497Z,2913.00
2023-04-27T01:06:52.510Z,2906.00
2023-04-27T01:07:52.542Z,2869.00
2023-04-27T01:08:52.542Z,2876.00
2023-04-27T01:09:52.555Z,2886.00
2023-04-27T01:10:52.539Z,2911.00
2023-04-27T01:11:52.569Z,2920.00
2023-04-27T01:12:52.569Z,2929.00
2023-04-27T01:13:52.566Z,2899.00
2023-04-27T01:14:52.576Z,2871.00
2023-04-27T01:15:52.590Z,2871.00
2023-04-27T01:16:52.748Z,2849.00
2023-04-27T01:17:52.664Z,2818.00
2023-04-27T01:18:52.645Z,2806.00
2023-04-27T01:19:52.658Z,2810.00
2023-04-27T01:20:52.670Z,2810.00
2023-04-27T01:21:52.724Z,2835.00
2023-04-27T01:22:52.731Z,2869.00
2023-04-27T01:23:52.736Z,2871.00
2023-04-27T01:24:52.792Z,2875.00
2023-04-27T01:25:52.833Z,2858.00
2023-04-27T01:26:52.885Z,2867.00
2023-04-27T01:27:52.949Z,2834.00
2023-04-27T01:28:53.038Z,2839.00
2023-04-27T01:29:53.036Z,2823.00
2023-04-27T01:30:53.053Z,2851.00
2023-04-27T01:31:53.081Z,2877.00
2023-04-27T01:32:53.195Z,2860.00
2023-04-27T01:33:53.183Z,2868.00
2023-04-27T01:34:53.251Z,2872.00
2023-04-27T01:35:53.260Z,2864.00
2023-04-27T01:36:53.317Z,2872.00
2023-04-27T01:37:53.387Z,2858.00
2023-04-27T01:38:53.439Z,2854.00
2023-04-27T01:39:53.497Z,2841.00
2023-04-27T01:40:53.536Z,2844.00
2023-04-27T01:41:53.609Z,2816.00
2023-04-27T01:42:53.674Z,2858.00
2023-04-27T01:43:53.712Z,2848.00
2023-04-27T01:44:53.788Z,2849.00
2023-04-27T01:45:53.819Z,2818.00
2023-04-27T01:46:53.797Z,2840.00
2023-04-27T01:47:53.867Z,2843.00
2023-04-27T01:48:53.806Z,2832.00
2023-04-27T01:49:53.803Z,2801.00
2023-04-27T01:50:53.811Z,2779.00
2023-04-27T01:51:53.832Z,2793.00
2023-04-27T01:52:53.851Z,2830.00
2023-04-27T01:53:53.833Z,2805.00
2023-04-27T01:54:53.873Z,2779.00
2023-04-27T01:55:53.850Z,2814.00
2023-04-27T01:56:53.873Z,2819.00
2023-04-27T01:57:53.870Z,2805.00
2023-04-27T01:58:53.883Z,2817.00
2023-04-27T01:59:53.894Z,2818.00
2023-04-27T02:00:53.915Z,2823.00
2023-04-27T02:01:53.930Z,2835.00
2023-04-27T02:02:53.980Z,2812.00
2023-04-27T02:03:54.061Z,2815.00
2023-04-27T02:04:54.038Z,2794.00
2023-04-27T02:05:53.911Z,2771.00
2023-04-27T02:06:53.912Z,2793.00
2023-04-27T02:07:53.936Z,2774.00
2023-04-27T02:08:53.922Z,2749.00
2023-04-27T02:09:53.939Z,2766.00
2023-04-27T02:10:53.940Z,2771.00
2023-04-27T02:11:53.956Z,2747.00
2023-04-27T02:12:53.973Z,2784.00
2023-04-27T02:13:53.992Z,2786.00
2023-04-27T02:14:54.069Z,2784.00
2023-04-27T02:15:54.174Z,2792.00
2023-04-27T02:16:54.135Z,2783.00
2023-04-27T02:17:54.199Z,2793.00
2023-04-27T02:18:54.141Z,2769.00
2023-04-27T02:19:54.153Z,2770.00
2023-04-27T02:20:54.133Z,2771.00
2023-04-27T02:21:54.157Z,2777.00
2023-04-27T02:22:54.165Z,2797.00
2023-04-27T02:23:54.200Z,2777.00
2023-04-27T02:24:54.199Z,2789.00
2023-04-27T02:25:54.192Z,2739.00
2023-04-27T02:26:54.215Z,2755.00
2023-04-27T02:27:54.296Z,2768.00
2023-04-27T02:28:54.325Z,2763.00
2023-04-27T02:29:54.397Z,2784.00
2023-04-27T02:30:54.447Z,2762.00
2023-04-27T02:31:54.560Z,2774.00
2023-04-27T02:32:54.593Z,2787.00
2023-04-27T02:33:54.624Z,2769.00
2023-04-27T02:34:54.647Z,2773.00
2023-04-27T02:35:54.715Z,2786.00
2023-04-27T02:36:54.742Z,2802.00
2023-04-27T02:37:54.796Z,2783.00
2023-04-27T02:38:54.849Z,2781.00
2023-04-27T02:39:54.898Z,2790.00
2023-04-27T02:40:54.949Z,2785.00
2023-04-27T02:41:55.008Z,2804.00
2023-04-27T02:42:55.053Z,2804.00
2023-04-27T02:43:55.104Z,2821.00
2023-04-27T02:44:55.144Z,2835.00
2023-04-27T02:45:55.201Z,2849.00
2023-04-27T02:46:55.347Z,2822.00
2023-04-27T02:47:55.381Z,2802.00
2023-04-27T02:48:55.311Z,2813.00
2023-04-27T02:49:55.332Z,2809.00
2023-04-27T02:50:55.339Z,2814.00
2023-04-27T02:51:55.347Z,2783.00
2023-04-27T02:52:55.391Z,2787.00
2023-04-27T02:53:55.365Z,2794.00
2023-04-27T02:54:55.389Z,2811.00
2023-04-27T02:55:55.406Z,2796.00
2023-04-27T02:56:55.414Z,2796.00
2023-04-27T02:57:55.443Z,2789.00
2023-04-27T02:58:55.457Z,2803.00
2023-04-27T02:59:55.488Z,2785.00
2023-04-27T03:00:55.500Z,2779.00
2023-04-27T03:01:55.488Z,2795.00
2023-04-27T03:02:55.639Z,2774.00
2023-04-27T03:03:55.690Z,2780.00
2023-04-27T03:04:55.527Z,2758.00
2023-04-27T03:05:55.550Z,2770.00
2023-04-27T03:06:55.634Z,2745.00
2023-04-27T03:07:55.680Z,2749.00
2023-04-27T03:08:55.732Z,2777.00
2023-04-27T03:09:55.776Z,2747.00
2023-04-27T03:10:55.755Z,2756.00
2023-04-27T03:11:55.796Z,2740.00
2023-04-27T03:12:55.771Z,2780.00
2023-04-27T03:13:55.800Z,2763.00
2023-04-27T03:14:55.807Z,2763.00
2023-04-27T03:15:55.882Z,2783.00
2023-04-27T03:16:55.901Z,2762.00
2023-04-27T03:17:55.874Z,2762.00
2023-04-27T03:18:55.841Z,2734.00
2023-04-27T03:19:55.841Z,2749.00
2023-04-27T03:20:55.831Z,2727.00
2023-04-27T03:21:55.844Z,2755.00
2023-04-27T03:22:55.872Z,2757.00
2023-04-27T03:23:55.882Z,2753.00
2023-04-27T03:24:55.888Z,2766.00
2023-04-27T03:25:55.874Z,2793.00
2023-04-27T03:26:55.897Z,2743.00
2023-04-27T03:27:55.901Z,2743.00
2023-04-27T03:28:55.899Z,2749.00
2023-04-27T03:29:55.917Z,2762.00
2023-04-27T03:30:55.932Z,2758.00
2023-04-27T03:31:55.976Z,2739.00
2023-04-27T03:32:56.016Z,2745.00
2023-04-27T03:33:55.985Z,2772.00
2023-04-27T03:34:55.982Z,2757.00
2023-04-27T03:35:55.993Z,2738.00
2023-04-27T03:36:55.982Z,2763.00
2023-04-27T03:37:56.019Z,2746.00
2023-04-27T03:38:56.020Z,2755.00
2023-04-27T03:39:56.017Z,2737.00
2023-04-27T03:40:56.034Z,2735.00
2023-04-27T03:41:56.066Z,2768.00
2023-04-27T03:42:57.060Z,2763.00
2023-04-27T03:43:56.216Z,2759.00
2023-04-27T03:44:56.278Z,2758.00
2023-04-27T03:45:56.396Z,2767.00
2023-04-27T03:46:56.362Z,2790.00
2023-04-27T03:47:56.390Z,2789.00
2023-04-27T03:48:56.361Z,2788.00
2023-04-27T03:49:56.373Z,2783.00
2023-04-27T03:50:56.392Z,2776.00
2023-04-27T03:51:56.403Z,2790.00
2023-04-27T03:52:56.427Z,2779.00
2023-04-27T03:53:56.480Z,2778.00
2023-04-27T03:54:56.462Z,2796.00
2023-04-27T03:55:56.441Z,2783.00
2023-04-27T03:56:56.425Z,2790.00
2023-04-27T03:57:56.498Z,2790.00
2023-04-27T03:58:56.472Z,2777.00
2023-04-27T03:59:56.470Z,2746.00
2023-04-27T04:00:56.458Z,2756.00
2023-04-27T04:01:57.460Z,2782.00
2023-04-27T04:02:56.706Z,2774.00
2023-04-27T04:03:56.696Z,2782.00
2023-04-27T04:04:56.877Z,2791.00
2023-04-27T04:05:56.571Z,2785.00
2023-04-27T04:06:56.592Z,2787.00
2023-04-27T04:07:56.626Z,2784.00
2023-04-27T04:08:56.626Z,2781.00
2023-04-27T04:09:56.640Z,2767.00
2023-04-27T04:10:56.637Z,2773.00
2023-04-27T04:11:56.633Z,2748.00
2023-04-27T04:12:56.686Z,2751.00
2023-04-27T04:13:56.722Z,2725.00
2023-04-27T04:14:56.764Z,2742.00
2023-04-27T04:15:56.927Z,2763.00
2023-04-27T04:16:56.900Z,2764.00
2023-04-27T04:17:56.914Z,2755.00
2023-04-27T04:18:56.912Z,2775.00
2023-04-27T04:19:56.906Z,2745.00
2023-04-27T04:20:56.929Z,2756.00
2023-04-27T04:21:56.949Z,2759.00
2023-04-27T04:22:56.983Z,2748.00
2023-04-27T04:23:56.993Z,2763.00
2023-04-27T04:24:56.991Z,2742.00
2023-04-27T04:25:57.013Z,2750.00
2023-04-27T04:26:57.033Z,2758.00
2023-04-27T04:27:57.019Z,2763.00
2023-04-27T04:28:57.023Z,2743.00
2023-04-27T04:29:57.033Z,2718.00
2023-04-27T04:30:57.094Z,2717.00
2023-04-27T04:31:57.069Z,2704.00
2023-04-27T04:32:57.085Z,2732.00
2023-04-27T04:33:57.078Z,2748.00
2023-04-27T04:34:57.082Z,2743.00
2023-04-27T04:35:57.074Z,2723.00
2023-04-27T04:36:57.075Z,2726.00
2023-04-27T04:37:57.074Z,2729.00
2023-04-27T04:38:57.150Z,2698.00
2023-04-27T04:39:57.085Z,2704.00
2023-04-27T04:40:57.158Z,2692.00
2023-04-27T04:41:57.217Z,2714.00
2023-04-27T04:42:57.250Z,2696.00
2023-04-27T04:43:57.247Z,2703.00
2023-04-27T04:44:57.271Z,2695.00
2023-04-27T04:45:57.274Z,2703.00
2023-04-27T04:46:57.331Z,2708.00
2023-04-27T04:47:57.273Z,2718.00
2023-04-27T04:48:57.282Z,2698.00
2023-04-27T04:49:57.292Z,2703.00
2023-04-27T04:50:57.310Z,2714.00
2023-04-27T04:51:57.327Z,2704.00
2023-04-27T04:52:57.362Z,2705.00
2023-04-27T04:53:57.377Z,2701.00
2023-04-27T04:54:57.364Z,2730.00
2023-04-27T04:55:57.376Z,2714.00
2023-04-27T04:56:57.364Z,2699.00
2023-04-27T04:57:57.375Z,2745.00
2023-04-27T04:58:57.384Z,2738.00
2023-04-27T04:59:57.408Z,2717.00
2023-04-27T05:00:57.392Z,2766.00
2023-04-27T05:01:57.554Z,2754.00
2023-04-27T05:02:57.496Z,2742.00
2023-04-27T05:03:57.526Z,2752.00
2023-04-27T05:04:57.646Z,2720.00
2023-04-27T05:05:57.449Z,2727.00
2023-04-27T05:06:57.425Z,2759.00
2023-04-27T05:07:57.451Z,2743.00
2023-04-27T05:08:57.440Z,2746.00
2023-04-27T05:09:57.499Z,2780.00
2023-04-27T05:10:57.447Z,2772.00
2023-04-27T05:11:57.489Z,2771.00
2023-04-27T05:12:57.504Z,2749.00
2023-04-27T05:13:57.524Z,2777.00
2023-04-27T05:14:57.516Z,2765.00
2023-04-27T05:15:57.529Z,2766.00
2023-04-27T05:16:57.470Z,2786.00
2023-04-27T05:17:57.551Z,2780.00
2023-04-27T05:18:57.552Z,2788.00
2023-04-27T05:19:57.611Z,2802.00
2023-04-27T05:20:57.670Z,2814.00
2023-04-27T05:21:57.696Z,2825.00
2023-04-27T05:22:57.765Z,2823.00
2023-04-27T05:23:57.823Z,2826.00
2023-04-27T05:24:57.852Z,2835.00
2023-04-27T05:25:57.931Z,2842.00
2023-04-27T05:26:58.605Z,2738.00
2023-04-27T05:27:57.952Z,2748.00
2023-04-27T05:28:57.999Z,2840.00
2023-04-27T05:29:58.049Z,2900.00
2023-04-27T05:30:58.115Z,2924.00
2023-04-27T05:31:58.229Z,2938.00
2023-04-27T05:32:58.260Z,3006.00
2023-04-27T05:33:58.301Z,3089.00
2023-04-27T05:34:58.357Z,3152.00
2023-04-27T05:35:58.417Z,3190.00
2023-04-27T05:36:58.564Z,3224.00
2023-04-27T05:37:58.543Z,3254.00
2023-04-27T05:38:58.541Z,3299.00
2023-04-27T05:39:58.758Z,3321.00
2023-04-27T05:40:58.677Z,3356.00
2023-04-27T05:41:58.727Z,3445.00
2023-04-27T05:42:58.731Z,3515.00
2023-04-27T05:43:58.946Z,3553.00
2023-04-27T05:44:58.728Z,3602.00
2023-04-27T05:45:58.833Z,3618.00
2023-04-27T05:46:58.793Z,3574.00
2023-04-27T05:47:58.932Z,3607.00
2023-04-27T05:48:58.936Z,3659.00
2023-04-27T05:49:58.960Z,3751.00
2023-04-27T05:50:58.957Z,3807.00
2023-04-27T05:51:58.965Z,3654.00
2023-04-27T05:52:58.947Z,3693.00
2023-04-27T05:53:58.969Z,3719.00
2023-04-27T05:54:58.953Z,3730.00
2023-04-27T05:55:58.982Z,3726.00
2023-04-27T05:56:58.983Z,3718.00
2023-04-27T05:58:07.838Z,3758.00
2023-04-27T05:59:02.399Z,3770.00
2023-04-27T05:59:58.959Z,3773.00
2023-04-27T06:00:58.950Z,3831.00
2023-04-27T06:01:59.021Z,3898.00
2023-04-27T06:02:59.024Z,3931.00
2023-04-27T06:03:59.050Z,3966.00
2023-04-27T06:04:58.943Z,3925.00
2023-04-27T06:05:59.265Z,3886.00
2023-04-27T06:06:58.915Z,3863.00
2023-04-27T06:07:58.904Z,3840.00
2023-04-27T06:08:58.897Z,3817.00
2023-04-27T06:09:58.881Z,3811.00
2023-04-27T06:10:58.892Z,3803.00
2023-04-27T06:11:58.871Z,3771.00
2023-04-27T06:12:59.155Z,3781.00
2023-04-27T06:13:58.888Z,3757.00
2023-04-27T06:14:58.832Z,3756.00
2023-04-27T06:15:58.883Z,3746.00
2023-04-27T06:16:58.861Z,3692.00
2023-04-27T06:17:58.833Z,3727.00
2023-04-27T06:18:58.805Z,3708.00
2023-04-27T06:19:58.835Z,3728.00
2023-04-27T06:20:58.815Z,3732.00
2023-04-27T06:21:58.795Z,3645.00
2023-04-27T06:22:58.797Z,3678.00
2023-04-27T06:23:58.796Z,3699.00
2023-04-27T06:24:58.761Z,3711.00
2023-04-27T06:25:58.793Z,3654.00
2023-04-27T06:26:58.763Z,3610.00
2023-04-27T06:27:58.747Z,3623.00
2023-04-27T06:28:58.731Z,3537.00
2023-04-27T06:29:58.790Z,3587.00
2023-04-27T06:30:59.126Z,3547.00
2023-04-27T06:31:58.789Z,3412.00
2023-04-27T06:32:58.762Z,3423.00
2023-04-27T06:33:58.735Z,3355.00
2023-04-27T06:34:58.727Z,3398.00
2023-04-27T06:35:59.144Z,3308.00
2023-04-27T06:36:58.703Z,3299.00
2023-04-27T06:37:59.209Z,3235.00
2023-04-27T06:38:58.692Z,3234.00
2023-04-27T06:39:58.681Z,3208.00
2023-04-27T06:40:58.676Z,3158.00
2023-04-27T06:41:58.679Z,3118.00
2023-04-27T06:42:58.691Z,3055.00
2023-04-27T06:43:59.207Z,3028.00
2023-04-27T06:44:58.633Z,3030.00
2023-04-27T06:45:58.686Z,3021.00
2023-04-27T06:46:58.643Z,3012.00
2023-04-27T06:47:58.640Z,2969.00
2023-04-27T06:48:58.610Z,2937.00
2023-04-27T06:49:58.615Z,2897.00
2023-04-27T06:50:58.596Z,2891.00
2023-04-27T06:51:58.602Z,2813.00
2023-04-27T06:52:58.607Z,2845.00
2023-04-27T06:53:58.606Z,2815.00
2023-04-27T06:54:58.587Z,2838.00
2023-04-27T06:55:58.685Z,2884.00
2023-04-27T06:56:58.718Z,2883.00
2023-04-27T06:57:58.740Z,2893.00
2023-04-27T06:58:58.777Z,2901.00
2023-04-27T06:59:58.823Z,2858.00
2023-04-27T07:00:59.462Z,2786.00
2023-04-27T07:01:59.223Z,2789.00
2023-04-27T07:02:59.137Z,2817.00
2023-04-27T07:03:59.103Z,2808.00
2023-04-27T07:04:59.156Z,2800.00
2023-04-27T07:05:59.128Z,2885.00
2023-04-27T07:06:59.137Z,2933.00
2023-04-27T07:08:01.546Z,2966.00
2023-04-27T07:08:59.276Z,2968.00
2023-04-27T07:09:59.181Z,2969.00
2023-04-27T07:10:59.181Z,2955.00
2023-04-27T07:11:59.192Z,2877.00
2023-04-27T07:12:59.169Z,2881.00
2023-04-27T07:13:59.175Z,2871.00
2023-04-27T07:14:59.183Z,2931.00
2023-04-27T07:15:59.210Z,2977.00
2023-04-27T07:16:59.163Z,3009.00
2023-04-27T07:17:59.226Z,2992.00
2023-04-27T07:18:59.404Z,3066.00
2023-04-27T07:19:59.154Z,2973.00
2023-04-27T07:20:59.155Z,2995.00
2023-04-27T07:21:59.330Z,3006.00
2023-04-27T07:22:59.161Z,3035.00
2023-04-27T07:23:59.123Z,3049.00
2023-04-27T07:24:59.124Z,3108.00
2023-04-27T07:25:59.151Z,3023.00
2023-04-27T07:26:59.224Z,2974.00
2023-04-27T07:27:59.687Z,2993.00
2023-04-27T07:28:59.343Z,3000.00
2023-04-27T07:29:59.352Z,2999.00
2023-04-27T07:30:59.436Z,3002.00
2023-04-27T07:31:59.556Z,2784.00
2023-04-27T07:32:59.578Z,2875.00
2023-04-27T07:33:59.509Z,2965.00
2023-04-27T07:34:59.523Z,3055.00
2023-04-27T07:35:59.523Z,3141.00
2023-04-27T07:36:59.577Z,3181.00
2023-04-27T07:37:59.624Z,3247.00
2023-04-27T07:38:59.648Z,3227.00
2023-04-27T07:39:59.672Z,3256.00
2023-04-27T07:40:59.676Z,3256.00
2023-04-27T07:41:59.669Z,3317.00
2023-04-27T07:42:59.659Z,3374.00
2023-04-27T07:43:59.703Z,3403.00
2023-04-27T07:44:59.745Z,3442.00
2023-04-27T07:45:59.845Z,3454.00
2023-04-27T07:46:59.878Z,3476.00
2023-04-27T07:47:59.948Z,3492.00
2023-04-27T07:49:00.017Z,3504.00
2023-04-27T07:50:00.037Z,3508.00
2023-04-27T07:51:00.163Z,3503.00
2023-04-27T07:52:00.140Z,3502.00
2023-04-27T07:53:00.160Z,3519.00
2023-04-27T07:54:00.229Z,3533.00
2023-04-27T07:55:00.250Z,3534.00
2023-04-27T07:56:00.287Z,3527.00
2023-04-27T07:57:00.302Z,3477.00
2023-04-27T07:58:00.390Z,3504.00
2023-04-27T07:59:00.381Z,3421.00
2023-04-27T08:00:00.387Z,3431.00
2023-04-27T08:01:00.414Z,3426.00
2023-04-27T08:02:17.838Z,3450.00
2023-04-27T08:03:01.634Z,3451.00
2023-04-27T08:04:00.709Z,3495.00
2023-04-27T08:05:00.638Z,3637.00
2023-04-27T08:06:00.808Z,3796.00
2023-04-27T08:07:00.761Z,3798.00
2023-04-27T08:08:00.647Z,3768.00
2023-04-27T08:09:00.705Z,3707.00
2023-04-27T08:10:00.412Z,3653.00
2023-04-27T08:11:00.404Z,3624.00
2023-04-27T08:12:00.423Z,3599.00
2023-04-27T08:13:00.379Z,3596.00
2023-04-27T08:14:00.425Z,3576.00
2023-04-27T08:15:00.486Z,3576.00
2023-04-27T08:16:00.537Z,3654.00
2023-04-27T08:17:00.581Z,3657.00
2023-04-27T08:18:00.608Z,3624.00
2023-04-27T08:19:00.898Z,3602.00
2023-04-27T08:20:00.552Z,3565.00
2023-04-27T08:21:00.728Z,3449.00
2023-04-27T08:22:00.618Z,3309.00
2023-04-27T08:23:00.599Z,3372.00
2023-04-27T08:24:00.692Z,3305.00
2023-04-27T08:25:00.723Z,3321.00
2023-04-27T08:26:00.775Z,3286.00
2023-04-27T08:27:00.833Z,3283.00
2023-04-27T08:28:00.825Z,3209.00
2023-04-27T08:29:03.234Z,3332.00
2023-04-27T08:30:01.838Z,3203.00
2023-04-27T08:31:00.857Z,3240.00
2023-04-27T08:32:00.818Z,3355.00
2023-04-27T08:33:00.862Z,3433.00
2023-04-27T08:34:00.818Z,3379.00
2023-04-27T08:35:00.808Z,3458.00
2023-04-27T08:36:00.809Z,3431.00
2023-04-27T08:37:00.803Z,3355.00
2023-04-27T08:38:00.786Z,3463.00
2023-04-27T08:39:00.765Z,3554.00
2023-04-27T08:40:00.787Z,3570.00
2023-04-27T08:41:07.626Z,3617.00
2023-04-27T08:42:01.802Z,3619.00
2023-04-27T08:43:00.779Z,3605.00
2023-04-27T08:44:00.732Z,3448.00
2023-04-27T08:45:00.736Z,3345.00
2023-04-27T08:46:00.766Z,3265.00
2023-04-27T08:47:00.740Z,3186.00
2023-04-27T08:48:00.778Z,2917.00
2023-04-27T08:49:00.727Z,2945.00
2023-04-27T08:50:00.708Z,2977.00
2023-04-27T08:51:00.689Z,2962.00
2023-04-27T08:52:00.681Z,3096.00
2023-04-27T08:53:00.684Z,3105.00
2023-04-27T08:54:00.688Z,2949.00
2023-04-27T08:55:00.666Z,2982.00
2023-04-27T08:56:00.684Z,3203.00
2023-04-27T08:57:00.663Z,3213.00
2023-04-27T08:58:00.709Z,3190.00
2023-04-27T08:59:01.179Z,3202.00
2023-04-27T09:00:00.844Z,3136.00
2023-04-27T09:01:00.870Z,3174.00
2023-04-27T09:02:00.917Z,3190.00
2023-04-27T09:03:01.064Z,3205.00
2023-04-27T09:04:01.079Z,3188.00
2023-04-27T09:05:01.307Z,3138.00
2023-04-27T09:06:05.018Z,3104.00
2023-04-27T09:07:01.957Z,3107.00
2023-04-27T09:08:00.959Z,3117.00
2023-04-27T09:09:00.939Z,3144.00
2023-04-27T09:10:00.916Z,3171.00
2023-04-27T09:11:00.912Z,3225.00
2023-04-27T09:12:00.905Z,3207.00
2023-04-27T09:13:00.929Z,3191.00
2023-04-27T09:14:00.909Z,2967.00
2023-04-27T09:15:00.890Z,3055.00
2023-04-27T09:16:00.926Z,3127.00
2023-04-27T09:17:00.868Z,3040.00
2023-04-27T09:18:00.908Z,3093.00
2023-04-27T09:19:00.867Z,3071.00
2023-04-27T09:20:00.858Z,3163.00
2023-04-27T09:21:00.855Z,3191.00
2023-04-27T09:22:00.864Z,3238.00
2023-04-27T09:23:00.838Z,3245.00
2023-04-27T09:24:00.848Z,3224.00
2023-04-27T09:25:00.833Z,3237.00
2023-04-27T09:26:01.415Z,3016.00
2023-04-27T09:27:01.142Z,2656.00
2023-04-27T09:28:00.816Z,2801.00
2023-04-27T09:29:01.204Z,2850.00
2023-04-27T09:30:00.813Z,2733.00
2023-04-27T09:31:01.226Z,2402.00
2023-04-27T09:32:01.014Z,2762.00
2023-04-27T09:33:01.030Z,2850.00
2023-04-27T09:34:01.056Z,2830.00
2023-04-27T09:35:01.094Z,2761.00
2023-04-27T09:36:01.132Z,2812.00
2023-04-27T09:37:01.198Z,2824.00
2023-04-27T09:38:01.286Z,2979.00
2023-04-27T09:39:01.329Z,3073.00
2023-04-27T09:40:01.415Z,2971.00
2023-04-27T09:41:01.712Z,2783.00
2023-04-27T09:42:01.514Z,2962.00
2023-04-27T09:43:01.483Z,2992.00
2023-04-27T09:44:01.532Z,3011.00
2023-04-27T09:45:01.553Z,3043.00
2023-04-27T09:46:01.713Z,3054.00
2023-04-27T09:47:01.643Z,3019.00
2023-04-27T09:48:01.758Z,2979.00
2023-04-27T09:49:01.719Z,2919.00
2023-04-27T09:50:01.762Z,2906.00
2023-04-27T09:51:02.213Z,2913.00
2023-04-27T09:52:01.861Z,2914.00
2023-04-27T09:53:01.921Z,2900.00
2023-04-27T09:54:01.976Z,2926.00
2023-04-27T09:55:02.027Z,2920.00
2023-04-27T09:56:02.237Z,2885.00
2023-04-27T09:57:02.152Z,2873.00
2023-04-27T09:58:02.204Z,2821.00
2023-04-27T09:59:02.261Z,2830.00
2023-04-27T10:00:02.327Z,2821.00
2023-04-27T10:01:02.401Z,2824.00
2023-04-27T10:02:10.014Z,2827.00
2023-04-27T10:03:03.527Z,2828.00
2023-04-27T10:04:02.583Z,2832.00
2023-04-27T10:05:02.456Z,2838.00
2023-04-27T10:06:02.414Z,2821.00
2023-04-27T10:07:02.426Z,2829.00
2023-04-27T10:08:02.436Z,2831.00
2023-04-27T10:09:02.427Z,2817.00
2023-04-27T10:10:02.396Z,2806.00
2023-04-27T10:11:02.411Z,2772.00
2023-04-27T10:12:02.376Z,2797.00
2023-04-27T10:13:02.412Z,2802.00
2023-04-27T10:14:02.364Z,2805.00
2023-04-27T10:15:02.364Z,2770.00
2023-04-27T10:16:02.336Z,2765.00
2023-04-27T10:17:02.422Z,2763.00
2023-04-27T10:18:02.349Z,2752.00
2023-04-27T10:19:02.314Z,2753.00
2023-04-27T10:20:02.324Z,2755.00
2023-04-27T10:21:02.299Z,2712.00
2023-04-27T10:22:02.327Z,2713.00
2023-04-27T10:23:02.341Z,2695.00
2023-04-27T10:24:02.715Z,2698.00
2023-04-27T10:25:02.362Z,2702.00
2023-04-27T10:26:02.415Z,2712.00
2023-04-27T10:27:02.479Z,2648.00
2023-04-27T10:28:02.603Z,2654.00
2023-04-27T10:29:02.584Z,2641.00
2023-04-27T10:30:02.644Z,2618.00
2023-04-27T10:31:02.741Z,2604.00
2023-04-27T10:32:02.713Z,2598.00
2023-04-27T10:33:02.830Z,2602.00
2023-04-27T10:34:02.831Z,2599.00
2023-04-27T10:35:02.880Z,2593.00
2023-04-27T10:36:02.950Z,2582.00
2023-04-27T10:37:03.013Z,2597.00
2023-04-27T10:38:03.076Z,2594.00
2023-04-27T10:39:03.106Z,2590.00
2023-04-27T10:40:03.113Z,2584.00
2023-04-27T10:41:03.139Z,2604.00
2023-04-27T10:42:03.165Z,2598.00
2023-04-27T10:43:03.162Z,2603.00
2023-04-27T10:44:03.220Z,2609.00
2023-04-27T10:45:03.185Z,2576.00
2023-04-27T10:46:03.222Z,2564.00
2023-04-27T10:47:04.137Z,2581.00
2023-04-27T10:48:03.285Z,2579.00
2023-04-27T10:49:03.205Z,2581.00
2023-04-27T10:50:03.212Z,2543.00
2023-04-27T10:51:03.242Z,2534.00
2023-04-27T10:52:03.765Z,2517.00
2023-04-27T10:53:03.258Z,2509.00
2023-04-27T10:54:03.273Z,2511.00
2023-04-27T10:55:03.733Z,2499.00
2023-04-27T10:56:03.288Z,2499.00
2023-04-27T10:57:03.356Z,2524.00
2023-04-27T10:58:03.402Z,2515.00
2023-04-27T10:59:03.471Z,2508.00
2023-04-27T11:00:03.486Z,2496.00
2023-04-27T11:01:03.492Z,2483.00
2023-04-27T11:02:03.599Z,2493.00
2023-04-27T11:03:03.681Z,2493.00
2023-04-27T11:04:03.661Z,2483.00
2023-04-27T11:05:03.741Z,2474.00
2023-04-27T11:06:03.796Z,2465.00
2023-04-27T11:07:03.867Z,2478.00
2023-04-27T11:08:03.887Z,2462.00
2023-04-27T11:09:03.873Z,2456.00
2023-04-27T11:10:03.986Z,2439.00
2023-04-27T11:11:04.061Z,2443.00
2023-04-27T11:12:04.149Z,2438.00
2023-04-27T11:13:04.143Z,2418.00
2023-04-27T11:14:04.247Z,2433.00
2023-04-27T11:15:04.278Z,2411.00
2023-04-27T11:16:04.370Z,2400.00
2023-04-27T11:17:04.347Z,2177.00
2023-04-27T11:18:04.459Z,2241.00
2023-04-27T11:19:04.394Z,2293.00
2023-04-27T11:20:04.414Z,2322.00
2023-04-27T11:21:04.464Z,2340.00
2023-04-27T11:22:04.783Z,2328.00
2023-04-27T11:23:04.480Z,2261.00
2023-04-27T11:24:04.507Z,2226.00
2023-04-27T11:25:04.527Z,2218.00
2023-04-27T11:26:04.526Z,2244.00
2023-04-27T11:27:04.532Z,2241.00
2023-04-27T11:28:04.583Z,2248.00
2023-04-27T11:29:04.610Z,2263.00
2023-04-27T11:30:04.685Z,2277.00
2023-04-27T11:31:04.790Z,2288.00
2023-04-27T11:32:04.868Z,2269.00
2023-04-27T11:33:04.916Z,2257.00
2023-04-27T11:34:04.910Z,2290.00
2023-04-27T11:35:04.972Z,2288.00
2023-04-27T11:36:04.951Z,2274.00
2023-04-27T11:37:14.681Z,2237.00
2023-04-27T11:38:05.983Z,2238.00
2023-04-27T11:39:05.034Z,2246.00
2023-04-27T11:40:05.048Z,2259.00
2023-04-27T11:41:04.962Z,2259.00
2023-04-27T11:42:04.956Z,2275.00
2023-04-27T11:43:04.929Z,2261.00
2023-04-27T11:44:04.927Z,2260.00
2023-04-27T11:45:04.921Z,2251.00
2023-04-27T11:46:04.928Z,2231.00
2023-04-27T11:47:04.979Z,2230.00
2023-04-27T11:48:04.902Z,2251.00
2023-04-27T11:49:04.887Z,2241.00
2023-04-27T11:50:04.909Z,2265.00
2023-04-27T11:51:04.868Z,2273.00
2023-04-27T11:52:04.889Z,2251.00
2023-04-27T11:53:04.901Z,2263.00
2023-04-27T11:54:04.916Z,2252.00
2023-04-27T11:55:04.941Z,2237.00
2023-04-27T11:56:04.976Z,2256.00
2023-04-27T11:57:05.006Z,2274.00
2023-04-27T11:58:05.007Z,2265.00
2023-04-27T11:59:05.080Z,2272.00
2023-04-27T12:00:05.084Z,2255.00
2023-04-27T12:01:05.122Z,2254.00
2023-04-27T12:02:05.197Z,2245.00
2023-04-27T12:03:05.294Z,2234.00
2023-04-27T12:04:05.372Z,2233.00
2023-04-27T12:05:05.373Z,2231.00
2023-04-27T12:06:21.631Z,2242.00